createdAt,value
2019-05-28T00:01:51.251Z,13.70
2019-05-28T00:04:17.376Z,13.70
2019-05-28T00:07:05.185Z,13.70
2019-05-28T00:09:39.148Z,13.70
2019-05-28T00:12:05.355Z,13.80
2019-05-28T00:14:31.368Z,13.80
2019-05-28T00:16:57.391Z,13.80
2019-05-28T00:19:24.462Z,13.70
2019-05-28T00:21:50.615Z,13.70
2019-05-28T00:24:16.633Z,13.70
2019-05-28T00:26:42.835Z,13.70
2019-05-28T00:29:09.153Z,13.70
2019-05-28T00:31:35.548Z,13.70
2019-05-28T00:34:01.584Z,13.70
2019-05-28T00:36:27.625Z,13.70
2019-05-28T00:38:53.630Z,13.60
2019-05-28T00:41:20.681Z,13.60
2019-05-28T00:43:46.724Z,13.50
2019-05-28T00:46:12.727Z,13.40
2019-05-28T00:48:38.763Z,13.40
2019-05-28T00:51:13.409Z,13.40
2019-05-28T00:53:39.486Z,13.30
2019-05-28T00:56:05.503Z,13.30
2019-05-28T00:58:31.551Z,13.30
2019-05-28T01:00:57.568Z,13.30
2019-05-28T01:03:23.932Z,13.20
2019-05-28T01:05:50.014Z,13.20
2019-05-28T01:08:16.055Z,13.20
2019-05-28T01:10:43.499Z,13.10
2019-05-28T01:13:09.553Z,13.10
2019-05-28T01:15:35.580Z,13.10
2019-05-28T01:18:01.611Z,13.10
2019-05-28T01:20:30.508Z,13.10
2019-05-28T01:22:56.536Z,13.00
2019-05-28T01:25:22.619Z,13.00
2019-05-28T01:27:48.691Z,13.00
2019-05-28T01:30:14.724Z,13.00
2019-05-28T01:32:46.843Z,13.00
2019-05-28T01:35:12.934Z,13.00
2019-05-28T01:37:38.947Z,12.90
2019-05-28T01:40:05.303Z,12.90
2019-05-28T01:42:31.324Z,12.80
2019-05-28T01:44:57.392Z,12.70
2019-05-28T01:47:23.636Z,12.70
2019-05-28T01:49:49.672Z,12.70
2019-05-28T01:52:15.687Z,12.70
2019-05-28T01:54:41.743Z,12.60
2019-05-28T01:57:10.426Z,12.50
2019-05-28T01:59:36.790Z,12.60
2019-05-28T02:02:02.837Z,12.60
2019-05-28T02:04:28.855Z,12.60
2019-05-28T02:06:57.806Z,12.60
2019-05-28T02:09:24.134Z,12.60
2019-05-28T02:11:51.563Z,12.60
2019-05-28T02:14:20.224Z,12.50
2019-05-28T02:16:46.369Z,12.50
2019-05-28T02:19:12.410Z,12.50
2019-05-28T02:21:38.421Z,12.40
2019-05-28T02:24:08.071Z,12.30
2019-05-28T02:26:34.505Z,12.30
2019-05-28T02:29:00.519Z,12.20
2019-05-28T02:31:27.917Z,12.20
2019-05-28T02:33:55.691Z,12.20
2019-05-28T02:36:24.752Z,12.20
2019-05-28T02:38:51.716Z,12.20
2019-05-28T02:41:19.093Z,12.20
2019-05-28T02:43:45.149Z,12.20
2019-05-28T02:46:11.395Z,12.30
2019-05-28T02:48:37.415Z,12.20
2019-05-28T02:51:03.433Z,12.20
2019-05-28T02:53:29.671Z,12.10
2019-05-28T02:55:56.189Z,12.10
2019-05-28T02:58:25.703Z,12.10
2019-05-28T03:00:51.731Z,12.10
2019-05-28T03:03:17.741Z,12.00
2019-05-28T03:05:43.837Z,12.00
2019-05-28T03:08:14.688Z,11.90
2019-05-28T03:13:08.702Z,11.90
2019-05-28T03:15:37.106Z,11.90
2019-05-28T03:18:04.515Z,11.90
2019-05-28T03:20:30.530Z,11.90
2019-05-28T03:22:56.907Z,11.90
2019-05-28T03:25:22.933Z,11.90
2019-05-28T03:27:48.932Z,11.90
2019-05-28T03:30:14.960Z,11.90
2019-05-28T03:32:40.978Z,11.90
2019-05-28T03:35:06.987Z,11.90
2019-05-28T03:37:33.510Z,11.80
2019-05-28T03:39:59.520Z,11.70
2019-05-28T03:42:25.830Z,11.80
2019-05-28T03:44:51.962Z,11.80
2019-05-28T03:47:17.984Z,11.90
2019-05-28T03:49:43.998Z,11.90
2019-05-28T03:52:10.023Z,11.90
2019-05-28T03:54:36.031Z,11.90
2019-05-28T03:57:02.056Z,11.90
2019-05-28T03:59:28.167Z,11.90
2019-05-28T04:01:54.176Z,11.90
2019-05-28T04:04:20.202Z,12.00
2019-05-28T04:06:46.303Z,12.00
2019-05-28T04:09:13.727Z,12.00
2019-05-28T04:11:44.855Z,12.00
2019-05-28T04:14:07.752Z,12.00
2019-05-28T04:16:34.373Z,12.00
2019-05-28T04:19:01.484Z,12.10
2019-05-28T04:21:28.512Z,12.20
2019-05-28T04:23:54.528Z,12.20
2019-05-28T04:26:20.539Z,12.30
2019-05-28T04:28:46.571Z,12.30
2019-05-28T04:31:12.583Z,12.40
2019-05-28T04:33:38.597Z,12.50
2019-05-28T04:36:04.624Z,12.40
2019-05-28T04:38:30.877Z,12.30
2019-05-28T04:40:56.887Z,12.30
2019-05-28T04:43:23.027Z,12.40
2019-05-28T04:45:49.043Z,12.30
2019-05-28T04:48:15.070Z,12.40
2019-05-28T04:50:41.192Z,12.50
2019-05-28T04:53:07.212Z,12.50
2019-05-28T04:55:33.262Z,12.50
2019-05-28T04:57:59.357Z,12.40
2019-05-28T05:00:25.352Z,12.50
2019-05-28T05:02:59.617Z,12.50
2019-05-28T05:05:19.677Z,12.60
2019-05-28T05:07:45.816Z,12.60
2019-05-28T05:10:12.300Z,12.70
2019-05-28T05:12:38.415Z,12.80
2019-05-28T05:15:04.953Z,12.80
2019-05-28T05:17:31.374Z,12.80
2019-05-28T05:19:58.259Z,12.80
2019-05-28T05:22:24.289Z,12.90
2019-05-28T05:24:50.292Z,12.90
2019-05-28T05:27:16.538Z,12.90
2019-05-28T05:29:42.614Z,13.00
2019-05-28T05:32:08.929Z,13.10
2019-05-28T05:34:37.163Z,13.10
2019-05-28T05:37:03.244Z,13.20
2019-05-28T05:39:29.269Z,13.10
2019-05-28T05:41:55.612Z,13.10
2019-05-28T05:44:21.626Z,13.00
2019-05-28T05:46:47.631Z,13.00
2019-05-28T05:49:13.759Z,13.10
2019-05-28T05:51:39.775Z,13.10
2019-05-28T05:54:05.791Z,13.20
2019-05-28T05:56:31.873Z,13.10
2019-05-28T05:58:58.012Z,13.20
2019-05-28T06:01:24.068Z,13.20
2019-05-28T06:03:50.440Z,13.20
2019-05-28T06:06:16.523Z,13.10
2019-05-28T06:08:42.557Z,13.10
2019-05-28T06:11:09.623Z,13.10
2019-05-28T06:13:35.683Z,13.20
2019-05-28T06:16:01.797Z,13.20
2019-05-28T06:18:27.881Z,13.20
2019-05-28T06:21:07.802Z,13.10
2019-05-28T06:23:21.981Z,13.10
2019-05-28T06:25:47.993Z,13.10
2019-05-28T06:28:14.015Z,13.10
2019-05-28T06:30:40.020Z,13.30
2019-05-28T06:33:06.391Z,13.50
2019-05-28T06:35:32.452Z,13.70
2019-05-28T06:37:58.472Z,13.90
2019-05-28T06:40:26.652Z,14.00
2019-05-28T06:42:57.380Z,14.20
2019-05-28T06:45:23.380Z,14.40
2019-05-28T06:47:49.438Z,14.30
2019-05-28T06:50:15.448Z,14.20
2019-05-28T06:52:41.477Z,14.20
2019-05-28T06:55:08.128Z,14.00
2019-05-28T06:57:34.139Z,14.20
2019-05-28T07:00:00.181Z,14.20
2019-05-28T07:02:26.231Z,14.20
2019-05-28T07:04:52.287Z,14.30
2019-05-28T07:07:18.351Z,14.60
2019-05-28T07:09:45.556Z,14.70
2019-05-28T07:12:12.582Z,15.00
2019-05-28T07:14:38.606Z,15.20
2019-05-28T07:17:04.645Z,15.50
2019-05-28T07:19:30.698Z,15.80
2019-05-28T07:21:56.735Z,16.00
2019-05-28T07:24:22.843Z,15.90
2019-05-28T07:26:58.114Z,15.90
2019-05-28T07:29:29.596Z,15.70
2019-05-28T07:32:08.444Z,15.70
2019-05-28T07:34:43.509Z,15.60
2019-05-28T07:37:15.453Z,15.70
2019-05-28T07:39:58.474Z,16.00
2019-05-28T07:42:31.721Z,16.10
2019-05-28T07:44:52.952Z,15.90
2019-05-28T07:47:25.125Z,15.80
2019-05-28T07:49:55.342Z,15.70
2019-05-28T07:52:31.505Z,15.70
2019-05-28T07:54:57.855Z,15.60
2019-05-28T07:57:23.877Z,15.60
2019-05-28T07:59:55.959Z,15.80
2019-05-28T08:02:22.104Z,15.80
2019-05-28T08:04:48.206Z,15.90
2019-05-28T08:07:14.367Z,16.00
2019-05-28T08:09:46.519Z,15.60
2019-05-28T08:12:12.729Z,15.30
2019-05-28T08:14:44.457Z,15.20
2019-05-28T08:17:13.063Z,15.00
2019-05-28T08:19:39.088Z,15.20
2019-05-28T08:22:05.148Z,15.40
2019-05-28T08:24:31.429Z,15.50
2019-05-28T08:26:57.453Z,15.70
2019-05-28T08:29:24.826Z,16.00
2019-05-28T08:31:50.915Z,16.20
2019-05-28T08:34:19.601Z,16.30
2019-05-28T08:37:04.362Z,16.50
2019-05-28T08:39:15.985Z,16.70
2019-05-28T08:41:42.337Z,16.80
2019-05-28T08:44:11.103Z,16.90
2019-05-28T08:46:37.280Z,16.70
2019-05-28T08:49:03.296Z,16.80
2019-05-28T08:51:29.303Z,16.80
2019-05-28T08:53:55.419Z,16.90
2019-05-28T08:56:21.443Z,16.90
2019-05-28T08:58:47.467Z,16.90
2019-05-28T09:01:16.673Z,16.60
2019-05-28T09:03:42.990Z,16.80
2019-05-28T09:06:08.995Z,17.40
2019-05-28T09:08:40.034Z,17.40
2019-05-28T09:11:06.171Z,17.30
2019-05-28T09:13:32.263Z,17.20
2019-05-28T09:15:58.889Z,17.10
2019-05-28T09:18:24.934Z,16.80
2019-05-28T09:20:51.125Z,16.80
2019-05-28T09:23:22.585Z,16.80
2019-05-28T09:25:48.645Z,17.10
2019-05-28T09:28:30.063Z,17.30
2019-05-28T09:30:53.430Z,17.50
2019-05-28T09:33:21.653Z,17.40
2019-05-28T09:36:07.252Z,17.50
2019-05-28T09:38:34.736Z,17.50
2019-05-28T09:41:15.035Z,17.50
2019-05-28T09:43:53.084Z,17.40
2019-05-28T09:46:31.775Z,17.30
2019-05-28T09:49:04.879Z,17.30
2019-05-28T09:51:43.075Z,17.40
2019-05-28T09:54:13.595Z,17.60
2019-05-28T09:56:41.619Z,18.10
2019-05-28T09:59:09.956Z,18.40
2019-05-28T10:01:37.576Z,18.70
2019-05-28T10:04:06.490Z,18.80
2019-05-28T10:06:37.222Z,18.70
2019-05-28T10:09:05.533Z,18.50
2019-05-28T10:11:38.051Z,18.40
2019-05-28T10:14:12.113Z,18.20
2019-05-28T10:16:45.152Z,18.10
2019-05-28T10:19:11.510Z,18.00
2019-05-28T10:21:37.599Z,18.00
2019-05-28T10:24:03.602Z,18.00
2019-05-28T10:26:31.343Z,18.20
2019-05-28T10:28:57.549Z,18.20
2019-05-28T10:31:23.627Z,18.30
2019-05-28T10:33:49.635Z,18.30
2019-05-28T10:36:34.056Z,18.60
2019-05-28T10:38:47.939Z,19.00
2019-05-28T10:41:14.035Z,19.50
2019-05-28T10:43:40.090Z,20.00
2019-05-28T10:46:06.946Z,20.10
2019-05-28T10:48:35.771Z,19.70
2019-05-28T10:51:01.848Z,19.70
2019-05-28T10:53:46.347Z,19.40
2019-05-28T10:56:13.865Z,19.40
2019-05-28T10:58:39.919Z,19.70
2019-05-28T11:01:09.062Z,20.80
2019-05-28T11:03:35.185Z,23.40
2019-05-28T11:06:07.213Z,24.80
2019-05-28T11:08:38.721Z,24.60
2019-05-28T11:11:04.794Z,24.70
2019-05-28T11:13:30.935Z,24.20
2019-05-28T11:16:04.075Z,24.40
2019-05-28T11:18:36.422Z,24.60
2019-05-28T11:21:02.440Z,23.80
2019-05-28T11:23:28.470Z,23.10
2019-05-28T11:25:58.041Z,22.40
2019-05-28T11:28:27.446Z,21.80
2019-05-28T11:30:53.982Z,21.30
2019-05-28T11:33:23.103Z,20.90
2019-05-28T11:35:49.118Z,21.00
2019-05-28T11:38:15.273Z,21.50
2019-05-28T11:40:41.324Z,23.20
2019-05-28T11:43:14.164Z,23.30
2019-05-28T11:45:45.675Z,24.00
2019-05-28T11:48:21.951Z,27.50
2019-05-28T11:50:45.495Z,31.10
2019-05-28T11:53:11.530Z,34.20
2019-05-28T11:55:37.539Z,35.20
2019-05-28T11:58:03.820Z,37.00
2019-05-28T12:00:29.896Z,37.50
2019-05-28T12:02:55.956Z,36.30
2019-05-28T12:05:21.982Z,33.50
2019-05-28T12:07:51.490Z,30.70
2019-05-28T12:10:18.744Z,28.70
2019-05-28T12:12:44.917Z,27.30
2019-05-28T12:15:26.086Z,26.20
2019-05-28T12:18:01.529Z,24.90
2019-05-28T12:20:28.200Z,24.50
2019-05-28T12:23:09.820Z,24.20
2019-05-28T12:25:23.954Z,25.40
2019-05-28T12:27:51.975Z,26.90
2019-05-28T12:30:20.151Z,28.60
2019-05-28T12:32:46.205Z,29.20
2019-05-28T12:35:27.340Z,30.40
2019-05-28T12:37:48.065Z,30.80
2019-05-28T12:40:09.444Z,31.60
2019-05-28T12:42:38.386Z,34.10
2019-05-28T12:45:09.989Z,35.00
2019-05-28T12:47:38.323Z,32.80
2019-05-28T12:50:17.842Z,29.80
2019-05-28T12:52:33.764Z,27.20
2019-05-28T12:54:59.861Z,25.20
2019-05-28T12:57:25.927Z,24.20
2019-05-28T12:59:53.115Z,24.20
2019-05-28T13:02:21.050Z,27.00
2019-05-28T13:04:47.059Z,30.90
2019-05-28T13:07:22.675Z,34.30
2019-05-28T13:09:53.606Z,34.80
2019-05-28T13:12:23.764Z,33.70
2019-05-28T13:14:49.863Z,32.50
2019-05-28T13:17:15.971Z,31.50
2019-05-28T13:19:42.562Z,29.90
2019-05-28T13:22:09.094Z,28.10
2019-05-28T13:24:35.131Z,26.70
2019-05-28T13:27:16.973Z,26.90
2019-05-28T13:29:39.496Z,29.30
2019-05-28T13:32:07.845Z,31.80
2019-05-28T13:34:30.883Z,34.30
2019-05-28T13:36:56.910Z,36.30
2019-05-28T13:39:23.254Z,35.50
2019-05-28T13:41:49.483Z,34.80
2019-05-28T13:44:15.522Z,35.40
2019-05-28T13:46:41.602Z,37.40
2019-05-28T13:49:07.747Z,38.50
2019-05-28T13:51:33.759Z,38.90
2019-05-28T13:53:59.784Z,36.40
2019-05-28T13:56:26.129Z,35.40
2019-05-28T13:58:52.543Z,35.70
2019-05-28T14:01:18.558Z,34.70
2019-05-28T14:03:44.616Z,34.20
2019-05-28T14:06:10.655Z,35.20
2019-05-28T14:08:46.424Z,37.30
2019-05-28T14:11:04.969Z,38.50
2019-05-28T14:13:31.124Z,39.40
2019-05-28T14:15:57.167Z,39.60
2019-05-28T14:18:23.426Z,39.20
2019-05-28T14:20:49.456Z,40.00
2019-05-28T14:23:16.555Z,40.20
2019-05-28T14:25:42.771Z,41.10
2019-05-28T14:28:09.124Z,39.20
2019-05-28T14:30:35.148Z,35.40
2019-05-28T14:33:01.179Z,32.70
2019-05-28T14:35:27.199Z,31.60
2019-05-28T14:37:53.240Z,32.00
2019-05-28T14:40:24.478Z,33.20
2019-05-28T14:42:49.320Z,34.50
2019-05-28T14:45:15.339Z,35.80
2019-05-28T14:47:41.449Z,36.50
2019-05-28T14:50:07.496Z,36.90
2019-05-28T14:52:33.595Z,37.40
2019-05-28T14:54:59.676Z,36.80
2019-05-28T14:57:25.837Z,37.40
2019-05-28T14:59:54.638Z,38.00
2019-05-28T15:02:21.236Z,37.90
2019-05-28T15:04:52.347Z,38.50
2019-05-28T15:07:18.462Z,38.60
2019-05-28T15:09:45.083Z,38.30
2019-05-28T15:12:11.160Z,37.10
2019-05-28T15:14:37.163Z,37.60
2019-05-28T15:17:03.439Z,38.30
2019-05-28T15:19:29.488Z,38.10
2019-05-28T15:21:55.564Z,38.00
2019-05-28T15:24:22.646Z,37.70
2019-05-28T15:26:48.658Z,36.60
2019-05-28T15:29:14.693Z,34.10
2019-05-28T15:31:40.787Z,31.50
2019-05-28T15:34:06.821Z,29.00
2019-05-28T15:36:32.870Z,27.20
2019-05-28T15:38:58.960Z,26.20
2019-05-28T15:41:25.056Z,26.50
2019-05-28T15:43:51.081Z,28.30
2019-05-28T15:46:17.128Z,30.00
2019-05-28T15:48:43.155Z,29.50
2019-05-28T15:51:09.490Z,28.10
2019-05-28T15:53:35.556Z,26.30
2019-05-28T15:56:04.131Z,25.70
2019-05-28T15:58:30.167Z,27.00
2019-05-28T16:00:59.602Z,28.70
2019-05-28T16:03:25.718Z,29.90
2019-05-28T16:05:56.725Z,30.70
2019-05-28T16:08:23.124Z,31.40
2019-05-28T16:10:51.183Z,31.20
2019-05-28T16:13:21.026Z,31.80
2019-05-28T16:15:50.867Z,31.70
2019-05-28T16:18:19.580Z,32.20
2019-05-28T16:20:45.603Z,32.10
2019-05-28T16:23:11.672Z,32.30
2019-05-28T16:25:41.483Z,32.60
2019-05-28T16:28:06.423Z,32.10
2019-05-28T16:30:32.816Z,30.20
2019-05-28T16:32:58.878Z,28.30
2019-05-28T16:35:24.898Z,26.80
2019-05-28T16:37:50.989Z,25.60
2019-05-28T16:40:17.522Z,25.00
2019-05-28T16:42:43.539Z,24.30
2019-05-28T16:45:09.763Z,23.70
2019-05-28T16:47:36.094Z,23.20
2019-05-28T16:50:03.599Z,22.50
2019-05-28T16:52:29.747Z,21.90
2019-05-28T16:54:55.843Z,21.50
2019-05-28T16:57:21.900Z,21.30
2019-05-28T16:59:48.248Z,20.80
2019-05-28T17:02:14.267Z,20.40
2019-05-28T17:04:40.292Z,20.10
2019-05-28T17:07:06.715Z,19.80
2019-05-28T17:09:32.729Z,19.50
2019-05-28T17:11:58.794Z,19.10
2019-05-28T17:14:27.149Z,19.00
2019-05-28T17:16:53.015Z,19.00
2019-05-28T17:19:19.336Z,18.80
2019-05-28T17:21:45.543Z,18.50
2019-05-28T17:24:47.465Z,18.40
2019-05-28T17:27:37.410Z,18.20
2019-05-28T17:30:17.252Z,18.10
2019-05-28T17:32:32.373Z,17.80
2019-05-28T17:35:02.279Z,17.60
2019-05-28T17:37:28.378Z,17.50
2019-05-28T17:39:54.524Z,17.50
2019-05-28T17:42:26.324Z,17.50
2019-05-28T17:44:52.360Z,17.50
2019-05-28T17:47:24.485Z,17.30
2019-05-28T17:49:50.618Z,17.10
2019-05-28T17:52:16.623Z,17.00
2019-05-28T17:54:48.568Z,16.80
2019-05-28T17:57:17.427Z,16.80
2019-05-28T17:59:46.236Z,16.80
2019-05-28T18:02:12.261Z,16.80
2019-05-28T18:04:38.392Z,16.70
2019-05-28T18:07:04.677Z,16.60
2019-05-28T18:09:30.707Z,16.50
2019-05-28T18:11:59.625Z,16.40
2019-05-28T18:14:25.671Z,16.10
2019-05-28T18:16:51.713Z,16.00
2019-05-28T18:19:22.641Z,15.90
2019-05-28T18:21:50.589Z,15.80
2019-05-28T18:24:16.600Z,15.70
2019-05-28T18:26:42.638Z,15.50
2019-05-28T18:29:09.017Z,15.50
2019-05-28T18:31:35.384Z,15.30
2019-05-28T18:34:01.442Z,15.20
2019-05-28T18:36:27.464Z,15.20
2019-05-28T18:38:53.503Z,15.20
2019-05-28T18:41:22.057Z,15.20
2019-05-28T18:43:47.780Z,15.20
2019-05-28T18:46:15.562Z,15.10
2019-05-28T18:48:41.828Z,15.10
2019-05-28T18:51:08.159Z,15.00
2019-05-28T18:53:34.200Z,14.80
2019-05-28T18:56:16.575Z,14.80
2019-05-28T18:58:28.627Z,14.70
2019-05-28T19:00:57.703Z,14.60
2019-05-28T19:03:36.015Z,14.60
2019-05-28T19:08:52.758Z,14.40
2019-05-28T19:11:37.344Z,14.40
2019-05-28T19:13:53.339Z,14.30
2019-05-28T19:16:19.404Z,14.30
2019-05-28T19:18:56.010Z,14.30
2019-05-28T19:21:13.860Z,14.20
2019-05-28T19:23:39.927Z,14.10
2019-05-28T19:26:05.949Z,14.10
2019-05-28T19:28:37.067Z,14.10
2019-05-28T19:31:04.403Z,14.10
2019-05-28T19:33:49.445Z,14.00
2019-05-28T19:36:19.159Z,14.00
2019-05-28T19:38:52.507Z,13.90
2019-05-28T19:41:26.540Z,13.70
2019-05-28T19:44:01.846Z,13.70
2019-05-28T19:46:29.893Z,13.70
2019-05-28T19:48:58.243Z,13.60
2019-05-28T19:51:26.910Z,13.50
2019-05-28T19:53:53.333Z,13.50
2019-05-28T19:56:19.356Z,13.50
2019-05-28T19:58:49.505Z,13.40
2019-05-28T20:01:18.713Z,13.40
2019-05-28T20:03:54.458Z,13.40
2019-05-28T20:06:23.983Z,13.50
2019-05-28T20:08:59.374Z,13.50
2019-05-28T20:11:27.108Z,13.50
2019-05-28T20:13:53.589Z,13.40
2019-05-28T20:16:19.628Z,13.30
2019-05-28T20:18:45.928Z,13.20
2019-05-28T20:21:12.797Z,13.20
2019-05-28T20:23:38.907Z,13.20
2019-05-28T20:26:04.963Z,13.20
2019-05-28T20:28:31.132Z,13.10
2019-05-28T20:30:57.148Z,13.00
2019-05-28T20:33:24.534Z,12.90
2019-05-28T20:35:50.618Z,12.90
2019-05-28T20:38:16.693Z,12.80
2019-05-28T20:40:42.705Z,12.80
2019-05-28T20:43:10.288Z,12.70
2019-05-28T20:45:36.376Z,12.60
2019-05-28T20:48:02.566Z,12.50
2019-05-28T20:50:28.780Z,12.50
2019-05-28T20:52:54.795Z,12.50
2019-05-28T20:55:20.807Z,12.50
2019-05-28T20:57:47.109Z,12.40
2019-05-28T21:00:13.290Z,12.40
2019-05-28T21:02:39.556Z,12.30
2019-05-28T21:05:05.859Z,12.20
2019-05-28T21:07:31.919Z,12.00
2019-05-28T21:09:58.535Z,12.00
2019-05-28T21:12:24.768Z,12.00
2019-05-28T21:14:51.193Z,11.90
2019-05-28T21:17:17.431Z,11.90
2019-05-28T21:19:43.857Z,11.90
2019-05-28T21:22:25.557Z,11.90
2019-05-28T21:24:37.883Z,11.90
2019-05-28T21:27:05.118Z,11.90
2019-05-28T21:29:31.158Z,11.70
2019-05-28T21:32:00.826Z,11.70
2019-05-28T21:34:30.320Z,11.60
2019-05-28T21:37:05.012Z,11.50
2019-05-28T21:39:31.199Z,11.60
2019-05-28T21:42:00.057Z,11.60
2019-05-28T21:44:25.244Z,11.50
2019-05-28T21:47:00.554Z,11.50
2019-05-28T21:49:28.301Z,11.50
2019-05-28T21:51:56.684Z,11.50
2019-05-28T21:54:30.989Z,11.50
2019-05-28T21:57:03.865Z,11.40
2019-05-28T21:59:28.855Z,11.40
2019-05-28T22:01:58.165Z,11.40
2019-05-28T22:04:29.571Z,11.40
2019-05-28T22:06:57.843Z,11.40
2019-05-28T22:09:24.316Z,11.30
2019-05-28T22:11:51.742Z,11.20
2019-05-28T22:14:17.804Z,11.20
2019-05-28T22:16:43.815Z,11.20
2019-05-28T22:19:10.119Z,11.10
2019-05-28T22:21:36.133Z,11.00
2019-05-28T22:24:02.686Z,10.90
2019-05-28T22:26:30.820Z,10.90
2019-05-28T22:28:59.528Z,10.90
2019-05-28T22:31:25.599Z,10.90
2019-05-28T22:33:51.658Z,10.80
2019-05-28T22:36:18.313Z,10.80
2019-05-28T22:39:03.591Z,10.80
2019-05-28T22:41:30.467Z,10.80
2019-05-28T22:44:03.363Z,10.80
2019-05-28T22:46:29.504Z,10.70
2019-05-28T22:48:55.584Z,10.70
2019-05-28T22:51:21.596Z,10.70
2019-05-28T22:53:49.077Z,10.70
2019-05-28T22:56:15.071Z,10.60
2019-05-28T22:58:41.152Z,10.50
2019-05-28T23:01:08.737Z,10.50
2019-05-28T23:03:34.972Z,10.50
2019-05-28T23:06:01.167Z,10.50
2019-05-28T23:08:27.410Z,10.40
2019-05-28T23:10:56.754Z,10.40
2019-05-28T23:13:21.435Z,10.30
2019-05-28T23:15:47.771Z,10.30
2019-05-28T23:18:13.851Z,10.30
2019-05-28T23:20:39.937Z,10.30
2019-05-28T23:23:07.204Z,10.40
2019-05-28T23:25:33.449Z,10.30
2019-05-28T23:27:59.475Z,10.40
2019-05-28T23:30:25.820Z,10.40
2019-05-28T23:32:52.267Z,10.40
2019-05-28T23:35:18.301Z,10.40
2019-05-28T23:37:45.073Z,10.40
2019-05-28T23:40:11.360Z,10.40
2019-05-28T23:42:37.498Z,10.30
2019-05-28T23:45:05.754Z,10.30
2019-05-28T23:47:31.778Z,10.30
2019-05-28T23:49:57.788Z,10.30
2019-05-28T23:52:36.407Z,10.30
2019-05-28T23:55:03.789Z,10.30
2019-05-28T23:57:29.835Z,10.20
2019-05-28T23:59:59.263Z,10.20
